Impacts TAF Board INFO
FOR SITUATIONAL AWARENESS. NOT TO BE USED FOR FLIGHT PLANNING PURPOSES.
IDs:

PASC - Deadhorse Arpt, AK, US

Issued at 0436 UTC 20 Apr 2018
Updated at 0450 UTC 20 Apr 2018
Potential Impact None Slight Moderate High
Time0353Z 20/05Z 20/06Z 20/07Z 20/08Z 20/09Z 20/10Z 20/11Z 20/12Z 20/13Z 20/14Z 20/15Z 20/16Z 20/17Z>>
Type OBS PRVL PRVL PRVL PRVL PRVL PRVL PRVL PRVL PRVL PRVL PRVL PRVL PRVL
VIS 0.75 0.75 0.75 0.75 0.75 0.75 0.75 0.75 0.75 0.75 0.5 0.5 0.5 0.5
CIG 10 10 10 10 10 10 10 10 10 10 15 15 15 15
Cover BKN BKN BKN BKN BKN BKN BKN BKN BKN BKN OVC OVC OVC OVC
FltCat LIFR LIFR LIFR LIFR LIFR LIFR LIFR LIFR LIFR LIFR LIFR LIFR LIFR LIFR
WX -SN -SN BR -SN BR -SN BR -SN BR -SN BR -SN BR -SN BR -SN BR -SN BR SN FG SN FG SN FG SN FG
WDir 50 50 50 50 50 50 50 50 50 50 60 60 60 60
WSpd 11 11 11 11 11 11 11 11 11 11 13 13 13 13
WGst -- -- -- -- -- -- -- -- -- -- -- -- -- --

Raw TAF
PASC 200436Z 2005/2024 05011KT 3/4SM -SN BR BKN010
  FM201400 06013KT 1/2SM SN FG OVC015
  FM202300 03008KT 1 1/2SM BR OVC015


Raw METAR
PASC 200353Z 05011KT 3/4SM R06/5000VP6000FT -SN BKN010 M13/M15 A2987 RMK AO2 SLP118 P0000 T11281150
PASC 200308Z 28011KT 1/2SM R06/3500V5000FT SN BKN010 OVC025 M12/M14 A2987 RMK AO2 P0000 T11221144
PASC 200253Z 28011KT 2SM R06/5500VP6000FT -SN OVC013 M12/M14 A2987 RMK AO2 SLP116 P0000 60000 T11221144 56010
PASC 200153Z 27015KT 1 3/4SM -SN BLSN BKN023 OVC035 M13/M15 A2987 RMK AO2 SLP118 P0000 T11281150
PASC 200136Z 27015KT 1 1/2SM -SN BLSN BKN025 OVC033 M13/M16 A2988 RMK AO2 P0000 T11281156

METAR Board
Radar Display
Forecast Discussion

FOR SITUATIONAL AWARENESS. NOT TO BE USED FOR FLIGHT PLANNING PURPOSES.